createdAt,value
2022-11-16T00:00:45.447Z,8.70
2022-11-16T00:01:45.437Z,10.40
2022-11-16T00:02:45.379Z,11.00
2022-11-16T00:03:45.375Z,9.00
2022-11-16T00:04:45.359Z,9.60
2022-11-16T00:05:45.347Z,9.30
2022-11-16T00:06:45.332Z,10.60
2022-11-16T00:07:45.328Z,9.00
2022-11-16T00:08:45.319Z,12.00
2022-11-16T00:09:45.305Z,10.80
2022-11-16T00:10:45.289Z,8.30
2022-11-16T00:11:45.279Z,8.50
2022-11-16T00:12:45.267Z,8.30
2022-11-16T00:13:45.262Z,9.00
2022-11-16T00:14:45.247Z,8.70
2022-11-16T00:15:45.237Z,9.30
2022-11-16T00:16:45.254Z,8.60
2022-11-16T00:17:45.210Z,9.20
2022-11-16T00:18:45.204Z,10.40
2022-11-16T00:19:45.187Z,8.10
2022-11-16T00:20:45.175Z,8.00
2022-11-16T00:21:45.173Z,10.90
2022-11-16T00:22:45.154Z,8.60
2022-11-16T00:23:45.143Z,7.80
2022-11-16T00:24:45.131Z,10.10
2022-11-16T00:25:45.119Z,8.70
2022-11-16T00:26:45.108Z,8.40
2022-11-16T00:27:45.107Z,8.80
2022-11-16T00:28:45.091Z,8.50
2022-11-16T00:29:45.074Z,9.30
2022-11-16T00:30:45.075Z,7.00
2022-11-16T00:31:45.057Z,8.80
2022-11-16T00:32:45.136Z,7.80
2022-11-16T00:33:45.031Z,10.30
2022-11-16T00:34:45.019Z,9.10
2022-11-16T00:35:45.007Z,9.40
2022-11-16T00:36:44.993Z,8.50
2022-11-16T00:37:44.986Z,10.50
2022-11-16T00:38:44.976Z,8.00
2022-11-16T00:39:44.962Z,8.60
2022-11-16T00:40:44.949Z,9.10
2022-11-16T00:41:44.950Z,8.40
2022-11-16T00:42:44.927Z,8.20
2022-11-16T00:43:44.919Z,10.40
2022-11-16T00:44:44.905Z,8.60
2022-11-16T00:45:44.895Z,8.00
2022-11-16T00:46:44.891Z,8.10
2022-11-16T00:47:44.872Z,9.20
2022-11-16T00:48:44.882Z,7.30
2022-11-16T00:49:44.850Z,10.80
2022-11-16T00:50:44.839Z,7.80
2022-11-16T00:51:44.830Z,9.10
2022-11-16T00:52:44.813Z,8.80
2022-11-16T00:53:44.803Z,9.80
2022-11-16T00:54:44.791Z,9.50
2022-11-16T00:55:44.780Z,7.90
2022-11-16T00:56:44.773Z,8.00
2022-11-16T00:57:44.759Z,9.90
2022-11-16T00:58:44.745Z,7.50
2022-11-16T00:59:44.738Z,8.20
2022-11-16T01:00:44.723Z,7.60
2022-11-16T01:01:44.796Z,8.40
2022-11-16T01:02:44.702Z,9.30
2022-11-16T01:03:44.694Z,8.40
2022-11-16T01:04:44.731Z,8.20
2022-11-16T01:05:44.668Z,7.60
2022-11-16T01:06:44.663Z,8.60
2022-11-16T01:07:44.646Z,8.00
2022-11-16T01:08:44.672Z,7.20
2022-11-16T01:09:44.630Z,9.50
2022-11-16T01:10:44.635Z,9.20
2022-11-16T01:11:44.620Z,7.50
2022-11-16T01:12:44.592Z,7.60
2022-11-16T01:13:44.586Z,7.90
2022-11-16T01:14:44.570Z,8.10
2022-11-16T01:15:44.575Z,8.10
2022-11-16T01:16:44.553Z,9.50
2022-11-16T01:17:44.536Z,10.20
2022-11-16T01:18:44.521Z,8.00
2022-11-16T01:19:44.513Z,10.30
2022-11-16T01:20:44.518Z,9.90
2022-11-16T01:21:44.497Z,12.20
2022-11-16T01:22:44.477Z,15.10
2022-11-16T01:23:44.467Z,23.30
2022-11-16T01:24:44.454Z,44.60
2022-11-16T01:25:44.448Z,45.40
2022-11-16T01:26:44.432Z,42.30
2022-11-16T01:27:44.444Z,38.90
2022-11-16T01:28:44.428Z,38.50
2022-11-16T01:29:44.421Z,34.50
2022-11-16T01:30:44.394Z,35.00
2022-11-16T01:31:44.405Z,23.10
2022-11-16T01:32:44.369Z,25.70
2022-11-16T01:33:44.355Z,27.50
2022-11-16T01:34:44.343Z,29.70
2022-11-16T01:35:44.330Z,24.00
2022-11-16T01:36:44.344Z,22.90
2022-11-16T01:37:44.308Z,23.80
2022-11-16T01:38:44.300Z,34.40
2022-11-16T01:39:44.311Z,28.30
2022-11-16T01:40:44.278Z,26.90
2022-11-16T01:41:44.264Z,23.20
2022-11-16T01:42:44.263Z,17.10
2022-11-16T01:43:44.241Z,22.60
2022-11-16T01:44:44.230Z,22.80
2022-11-16T01:45:44.224Z,15.20
2022-11-16T01:46:44.214Z,18.00
2022-11-16T01:47:44.200Z,22.50
2022-11-16T01:48:44.304Z,25.20
2022-11-16T01:49:44.175Z,26.10
2022-11-16T01:50:44.172Z,22.40
2022-11-16T01:51:44.150Z,19.70
2022-11-16T01:52:44.162Z,18.70
2022-11-16T01:53:44.161Z,13.80
2022-11-16T01:54:44.131Z,10.90
2022-11-16T01:55:44.119Z,13.70
2022-11-16T01:56:44.103Z,11.70
2022-11-16T01:57:44.085Z,11.60
2022-11-16T01:58:44.073Z,10.90
2022-11-16T01:59:44.063Z,11.60
2022-11-16T02:00:44.151Z,13.50
2022-11-16T02:01:44.105Z,16.10
2022-11-16T02:02:44.027Z,18.00
2022-11-16T02:03:44.017Z,15.30
2022-11-16T02:04:44.009Z,21.00
2022-11-16T02:05:43.992Z,50.40
2022-11-16T02:06:43.985Z,82.40
2022-11-16T02:07:43.973Z,181.90
2022-11-16T02:08:43.987Z,115.80
2022-11-16T02:09:43.950Z,141.80
2022-11-16T02:10:43.940Z,116.30
2022-11-16T02:11:43.924Z,76.20
2022-11-16T02:12:43.916Z,75.60
2022-11-16T02:13:43.906Z,43.50
2022-11-16T02:14:43.894Z,25.20
2022-11-16T02:15:43.885Z,26.10
2022-11-16T02:16:43.870Z,21.50
2022-11-16T02:17:43.858Z,13.20
2022-11-16T02:18:43.847Z,10.70
2022-11-16T02:19:43.835Z,11.50
2022-11-16T02:20:43.824Z,10.20
2022-11-16T02:21:43.817Z,9.00
2022-11-16T02:22:43.804Z,9.60
2022-11-16T02:23:43.791Z,8.50
2022-11-16T02:24:43.813Z,10.00
2022-11-16T02:25:43.769Z,10.20
2022-11-16T02:26:43.757Z,9.30
2022-11-16T02:27:43.744Z,10.10
2022-11-16T02:28:43.737Z,9.10
2022-11-16T02:29:43.722Z,10.80
2022-11-16T02:30:43.713Z,9.90
2022-11-16T02:31:43.702Z,9.30
2022-11-16T02:32:43.689Z,9.00
2022-11-16T02:33:43.681Z,10.40
2022-11-16T02:34:43.669Z,10.30
2022-11-16T02:35:43.666Z,8.80
2022-11-16T02:36:43.648Z,8.70
2022-11-16T02:37:43.631Z,10.00
2022-11-16T02:38:43.621Z,9.60
2022-11-16T02:39:43.610Z,9.80
2022-11-16T02:40:43.623Z,9.60
2022-11-16T02:41:43.586Z,9.60
2022-11-16T02:42:43.580Z,8.80
2022-11-16T02:43:43.566Z,9.20
2022-11-16T02:44:43.557Z,9.00
2022-11-16T02:45:43.548Z,10.20
2022-11-16T02:46:43.533Z,8.90
2022-11-16T02:47:43.522Z,9.80
2022-11-16T02:48:43.508Z,9.80
2022-11-16T02:49:43.497Z,9.20
2022-11-16T02:50:43.491Z,9.50
2022-11-16T02:51:43.474Z,9.80
2022-11-16T02:52:43.464Z,9.20
2022-11-16T02:53:43.451Z,9.00
2022-11-16T02:54:43.443Z,9.00
2022-11-16T02:55:43.433Z,8.60
2022-11-16T02:56:43.442Z,9.10
2022-11-16T02:57:43.408Z,10.10
2022-11-16T02:58:43.398Z,9.60
2022-11-16T02:59:43.385Z,8.50
2022-11-16T03:00:43.424Z,8.90
2022-11-16T03:01:43.362Z,9.10
2022-11-16T03:02:43.351Z,8.40
2022-11-16T03:03:43.337Z,10.00
2022-11-16T03:04:43.329Z,10.30
2022-11-16T03:05:43.315Z,11.50
2022-11-16T03:06:43.306Z,12.40
2022-11-16T03:07:43.298Z,9.30
2022-11-16T03:08:43.285Z,11.30
2022-11-16T03:09:43.278Z,9.10
2022-11-16T03:10:43.269Z,10.00
2022-11-16T03:11:43.249Z,10.60
2022-11-16T03:12:43.262Z,10.10
2022-11-16T03:13:43.231Z,11.90
2022-11-16T03:14:43.216Z,9.30
2022-11-16T03:15:43.204Z,9.90
2022-11-16T03:16:43.194Z,13.40
2022-11-16T03:17:43.179Z,11.80
2022-11-16T03:18:43.173Z,11.00
2022-11-16T03:19:43.157Z,11.00
2022-11-16T03:20:43.149Z,10.50
2022-11-16T03:21:43.139Z,10.70
2022-11-16T03:22:43.123Z,10.60
2022-11-16T03:23:43.113Z,11.00
2022-11-16T03:24:43.103Z,11.40
2022-11-16T03:25:43.088Z,11.70
2022-11-16T03:26:43.081Z,13.40
2022-11-16T03:27:43.067Z,10.00
2022-11-16T03:28:43.082Z,12.50
2022-11-16T03:29:43.045Z,14.30
2022-11-16T03:30:43.041Z,12.80
2022-11-16T03:31:43.021Z,13.60
2022-11-16T03:32:43.015Z,11.00
2022-11-16T03:33:42.998Z,12.50
2022-11-16T03:34:42.990Z,12.80
2022-11-16T03:35:42.976Z,13.70
2022-11-16T03:36:42.968Z,14.10
2022-11-16T03:37:42.954Z,15.80
2022-11-16T03:38:42.945Z,14.50
2022-11-16T03:39:42.929Z,16.00
2022-11-16T03:40:42.919Z,13.70
2022-11-16T03:41:42.909Z,14.40
2022-11-16T03:42:42.902Z,15.10
2022-11-16T03:43:42.893Z,13.10
2022-11-16T03:44:42.900Z,15.10
2022-11-16T03:45:42.863Z,13.40
2022-11-16T03:46:42.850Z,12.70
2022-11-16T03:47:42.839Z,13.50
2022-11-16T03:48:42.830Z,14.30
2022-11-16T03:49:42.828Z,15.40
2022-11-16T03:50:42.805Z,14.70
2022-11-16T03:51:42.796Z,13.60
2022-11-16T03:52:42.783Z,14.90
2022-11-16T03:53:42.771Z,14.60
2022-11-16T03:54:42.762Z,16.10
2022-11-16T03:55:48.508Z,16.90
2022-11-16T03:56:43.764Z,19.10
2022-11-16T03:57:42.730Z,17.20
2022-11-16T03:58:42.726Z,16.10
2022-11-16T03:59:42.713Z,17.10
2022-11-16T04:00:42.822Z,15.60
2022-11-16T04:01:44.934Z,18.50
2022-11-16T04:02:42.732Z,17.10
2022-11-16T04:03:42.784Z,18.20
2022-11-16T04:04:42.833Z,18.70
2022-11-16T04:05:42.785Z,18.00
2022-11-16T04:06:42.701Z,19.60
2022-11-16T04:07:42.639Z,19.20
2022-11-16T04:08:42.607Z,18.40
2022-11-16T04:09:42.589Z,19.50
2022-11-16T04:10:42.582Z,18.50
2022-11-16T04:11:42.574Z,20.30
2022-11-16T04:12:42.557Z,16.60
2022-11-16T04:13:42.543Z,19.40
2022-11-16T04:14:42.534Z,17.70
2022-11-16T04:15:42.521Z,19.50
2022-11-16T04:16:42.538Z,18.00
2022-11-16T04:17:42.504Z,16.90
2022-11-16T04:18:42.490Z,20.90
2022-11-16T04:19:42.477Z,18.50
2022-11-16T04:20:42.470Z,21.20
2022-11-16T04:21:42.454Z,18.60
2022-11-16T04:22:42.443Z,21.20
2022-11-16T04:23:42.433Z,18.60
2022-11-16T04:24:42.428Z,23.30
2022-11-16T04:25:42.406Z,19.40
2022-11-16T04:26:42.399Z,20.60
2022-11-16T04:27:42.385Z,17.00
2022-11-16T04:28:42.375Z,20.80
2022-11-16T04:29:42.361Z,20.50
2022-11-16T04:30:42.351Z,21.90
2022-11-16T04:31:42.340Z,23.10
2022-11-16T04:32:42.354Z,22.50
2022-11-16T04:33:42.316Z,22.20
2022-11-16T04:34:42.307Z,21.20
2022-11-16T04:35:42.316Z,22.90
2022-11-16T04:36:42.288Z,21.00
2022-11-16T04:37:42.270Z,21.70
2022-11-16T04:38:42.262Z,20.40
2022-11-16T04:39:42.248Z,23.70
2022-11-16T04:40:42.242Z,22.10
2022-11-16T04:41:42.225Z,23.50
2022-11-16T04:42:42.220Z,25.20
2022-11-16T04:43:42.204Z,21.80
2022-11-16T04:44:42.194Z,22.20
2022-11-16T04:45:42.183Z,22.60
2022-11-16T04:46:42.170Z,22.80
2022-11-16T04:47:42.155Z,23.30
2022-11-16T04:48:42.169Z,21.70
2022-11-16T04:49:42.138Z,25.40
2022-11-16T04:50:42.124Z,22.80
2022-11-16T04:51:42.116Z,23.60
2022-11-16T04:52:42.104Z,25.30
2022-11-16T04:53:42.116Z,23.00
2022-11-16T04:54:42.077Z,24.30
2022-11-16T04:55:42.066Z,27.20
2022-11-16T04:56:42.062Z,30.50
2022-11-16T04:57:42.045Z,29.30
2022-11-16T04:58:42.039Z,27.10
2022-11-16T04:59:42.024Z,26.40
2022-11-16T05:00:42.024Z,27.20
2022-11-16T05:01:42.053Z,28.70
2022-11-16T05:02:41.986Z,29.40
2022-11-16T05:03:41.975Z,27.20
2022-11-16T05:04:41.988Z,29.50
2022-11-16T05:05:41.953Z,30.60
2022-11-16T05:06:41.942Z,28.20
2022-11-16T05:07:41.929Z,29.20
2022-11-16T05:08:41.919Z,29.80
2022-11-16T05:09:41.905Z,27.30
2022-11-16T05:10:41.903Z,28.50
2022-11-16T05:11:41.891Z,36.00
2022-11-16T05:12:41.873Z,31.30
2022-11-16T05:13:41.863Z,34.40
2022-11-16T05:14:41.850Z,37.60
2022-11-16T05:15:41.840Z,38.10
2022-11-16T05:16:41.830Z,34.00
2022-11-16T05:17:41.818Z,33.90
2022-11-16T05:18:41.803Z,30.80
2022-11-16T05:19:41.796Z,33.90
2022-11-16T05:20:41.803Z,43.90
2022-11-16T05:21:41.775Z,38.20
2022-11-16T05:22:41.764Z,41.60
2022-11-16T05:23:41.750Z,39.90
2022-11-16T05:24:41.742Z,36.90
2022-11-16T05:25:41.723Z,39.20
2022-11-16T05:26:41.718Z,37.20
2022-11-16T05:27:41.708Z,34.20
2022-11-16T05:28:41.732Z,34.10
2022-11-16T05:29:41.679Z,36.40
2022-11-16T05:30:41.670Z,33.60
2022-11-16T05:31:41.656Z,36.00
2022-11-16T05:32:41.644Z,35.60
2022-11-16T05:33:41.639Z,34.20
2022-11-16T05:34:41.639Z,37.90
2022-11-16T05:35:41.610Z,36.10
2022-11-16T05:36:41.625Z,40.20
2022-11-16T05:37:41.585Z,38.70
2022-11-16T05:38:41.579Z,36.30
2022-11-16T05:39:41.565Z,40.70
2022-11-16T05:40:41.573Z,39.70
2022-11-16T05:41:41.545Z,37.30
2022-11-16T05:42:41.535Z,42.00
2022-11-16T05:43:41.521Z,35.80
2022-11-16T05:44:41.509Z,34.90
2022-11-16T05:45:41.499Z,39.00
2022-11-16T05:46:41.491Z,34.10
2022-11-16T05:47:41.475Z,41.70
2022-11-16T05:48:41.468Z,38.60
2022-11-16T05:49:41.453Z,40.80
2022-11-16T05:50:43.192Z,38.60
2022-11-16T05:51:41.432Z,40.00
2022-11-16T05:52:41.438Z,40.90
2022-11-16T05:53:41.421Z,41.10
2022-11-16T05:54:41.402Z,38.20
2022-11-16T05:55:41.390Z,41.60
2022-11-16T05:56:41.411Z,39.90
2022-11-16T05:57:41.369Z,41.20
2022-11-16T05:58:41.352Z,41.70
2022-11-16T05:59:41.352Z,40.50
2022-11-16T06:00:41.337Z,39.80
2022-11-16T06:01:41.321Z,40.70
2022-11-16T06:02:41.384Z,47.30
2022-11-16T06:03:41.298Z,42.50
2022-11-16T06:04:41.426Z,42.30
2022-11-16T06:05:41.294Z,41.40
2022-11-16T06:06:41.261Z,39.70
2022-11-16T06:07:41.256Z,43.20
2022-11-16T06:08:41.252Z,47.60
2022-11-16T06:09:41.230Z,39.60
2022-11-16T06:10:41.214Z,47.20
2022-11-16T06:11:41.210Z,42.80
2022-11-16T06:12:41.195Z,42.30
2022-11-16T06:13:41.182Z,42.20
2022-11-16T06:14:41.171Z,41.20
2022-11-16T06:15:41.160Z,46.80
2022-11-16T06:16:41.441Z,42.10
2022-11-16T06:17:41.140Z,39.90
2022-11-16T06:18:41.129Z,41.70
2022-11-16T06:19:41.121Z,48.20
2022-11-16T06:20:41.116Z,43.90
2022-11-16T06:21:41.117Z,47.10
2022-11-16T06:22:41.104Z,43.50
2022-11-16T06:23:41.075Z,42.60
2022-11-16T06:24:41.058Z,42.70
2022-11-16T06:25:41.048Z,39.70
2022-11-16T06:26:41.035Z,44.20
2022-11-16T06:27:41.026Z,42.70
2022-11-16T06:28:41.016Z,44.70
2022-11-16T06:29:41.011Z,42.30
2022-11-16T06:30:40.991Z,43.70
2022-11-16T06:31:40.982Z,44.60
2022-11-16T06:32:41.281Z,46.90
2022-11-16T06:33:40.975Z,41.10
2022-11-16T06:34:40.948Z,43.60
2022-11-16T06:35:40.937Z,38.80
2022-11-16T06:36:40.926Z,44.30
2022-11-16T06:37:40.915Z,41.60
2022-11-16T06:38:40.906Z,39.70
2022-11-16T06:39:40.894Z,45.60
2022-11-16T06:40:40.890Z,41.80
2022-11-16T06:41:41.593Z,43.40
2022-11-16T06:42:40.867Z,41.90
2022-11-16T06:43:40.849Z,43.80
2022-11-16T06:44:40.839Z,46.70
2022-11-16T06:45:40.824Z,43.00
2022-11-16T06:46:40.813Z,43.40
2022-11-16T06:47:40.809Z,43.70
2022-11-16T06:48:40.921Z,43.40
2022-11-16T06:49:40.783Z,45.90
2022-11-16T06:50:40.770Z,47.40
2022-11-16T06:51:40.760Z,40.20
2022-11-16T06:52:40.750Z,40.60
2022-11-16T06:53:40.787Z,40.10
2022-11-16T06:54:40.724Z,42.20
2022-11-16T06:55:40.714Z,42.60
2022-11-16T06:56:40.703Z,44.60
2022-11-16T06:57:40.691Z,40.50
2022-11-16T06:58:42.797Z,42.70
2022-11-16T06:59:40.669Z,44.40
2022-11-16T07:00:40.658Z,42.50
2022-11-16T07:01:40.729Z,46.50
2022-11-16T07:02:40.642Z,42.90
2022-11-16T07:03:40.631Z,41.90
2022-11-16T07:04:40.632Z,42.30
2022-11-16T07:05:40.601Z,39.40
2022-11-16T07:06:40.591Z,42.90
2022-11-16T07:07:40.578Z,41.60
2022-11-16T07:08:40.568Z,47.30
2022-11-16T07:09:40.556Z,42.60
2022-11-16T07:10:40.545Z,42.90
2022-11-16T07:11:40.534Z,41.60
2022-11-16T07:12:40.522Z,47.10
2022-11-16T07:13:40.511Z,42.40
2022-11-16T07:14:40.499Z,45.50
2022-11-16T07:15:40.491Z,41.40
2022-11-16T07:16:40.478Z,40.60
2022-11-16T07:17:40.465Z,49.20
2022-11-16T07:18:40.463Z,43.10
2022-11-16T07:19:40.445Z,43.10
2022-11-16T07:20:40.704Z,42.50
2022-11-16T07:21:40.423Z,46.30
2022-11-16T07:22:40.421Z,46.30
2022-11-16T07:23:40.401Z,44.90
2022-11-16T07:24:40.390Z,41.50
2022-11-16T07:25:40.382Z,46.80
2022-11-16T07:26:40.364Z,45.90
2022-11-16T07:27:40.355Z,45.70
2022-11-16T07:28:46.625Z,44.00
2022-11-16T07:29:41.357Z,40.70
2022-11-16T07:30:40.320Z,47.60
2022-11-16T07:31:40.311Z,51.70
2022-11-16T07:32:40.299Z,44.20
2022-11-16T07:33:40.289Z,48.80
2022-11-16T07:34:40.277Z,46.50
2022-11-16T07:35:40.268Z,48.90
2022-11-16T07:36:40.276Z,46.10
2022-11-16T07:37:40.242Z,48.30
2022-11-16T07:38:40.233Z,46.60
2022-11-16T07:39:40.223Z,46.10
2022-11-16T07:40:40.222Z,55.70
2022-11-16T07:41:40.195Z,47.70
2022-11-16T07:42:40.184Z,47.10
2022-11-16T07:43:40.183Z,51.70
2022-11-16T07:44:40.162Z,50.80
2022-11-16T07:45:40.154Z,50.50
2022-11-16T07:46:48.423Z,55.40
2022-11-16T07:47:41.154Z,49.10
2022-11-16T07:48:40.119Z,50.50
2022-11-16T07:49:40.109Z,53.10
2022-11-16T07:50:40.097Z,53.40
2022-11-16T07:51:40.197Z,51.00
2022-11-16T07:52:40.311Z,52.10
2022-11-16T07:53:40.063Z,52.90
2022-11-16T07:54:40.055Z,56.50
2022-11-16T07:55:40.056Z,54.30
2022-11-16T07:56:40.029Z,60.80
2022-11-16T07:57:40.021Z,55.70
2022-11-16T07:58:40.010Z,58.70
2022-11-16T07:59:39.997Z,60.90
2022-11-16T08:00:40.033Z,50.60
2022-11-16T08:01:40.054Z,64.00
2022-11-16T08:02:39.960Z,55.70
2022-11-16T08:03:39.980Z,57.30
2022-11-16T08:04:39.938Z,62.00
2022-11-16T08:05:39.931Z,59.20
2022-11-16T08:06:39.917Z,65.70
2022-11-16T08:07:39.929Z,59.40
2022-11-16T08:08:40.013Z,68.80
2022-11-16T08:09:39.922Z,66.10
2022-11-16T08:10:39.873Z,61.20
2022-11-16T08:11:39.862Z,73.60
2022-11-16T08:12:39.863Z,64.40
2022-11-16T08:13:39.839Z,64.30
2022-11-16T08:14:39.842Z,66.80
2022-11-16T08:15:39.821Z,64.90
2022-11-16T08:16:39.812Z,63.80
2022-11-16T08:17:39.795Z,62.70
2022-11-16T08:18:39.783Z,69.10
2022-11-16T08:19:39.779Z,65.70
2022-11-16T08:20:39.763Z,86.00
2022-11-16T08:21:39.753Z,54.10
2022-11-16T08:22:39.739Z,61.90
2022-11-16T08:23:39.730Z,60.70
2022-11-16T08:24:39.835Z,71.50
2022-11-16T08:25:39.708Z,56.60
2022-11-16T08:26:39.695Z,81.30
2022-11-16T08:27:39.690Z,74.20
2022-11-16T08:28:39.673Z,82.40
2022-11-16T08:29:39.665Z,53.30
2022-11-16T08:30:39.651Z,60.50
2022-11-16T08:31:39.642Z,60.80
2022-11-16T08:32:39.641Z,63.60
2022-11-16T08:33:39.620Z,56.50
2022-11-16T08:34:39.606Z,64.70
2022-11-16T08:35:39.596Z,67.00
2022-11-16T08:36:39.582Z,69.40
2022-11-16T08:37:39.576Z,78.40
2022-11-16T08:38:39.562Z,85.00
2022-11-16T08:39:39.551Z,117.50
2022-11-16T08:40:39.657Z,65.80
2022-11-16T08:41:39.529Z,84.40
2022-11-16T08:42:43.687Z,65.70
2022-11-16T08:43:39.525Z,68.60
2022-11-16T08:44:39.496Z,111.70
2022-11-16T08:45:39.484Z,66.00
2022-11-16T08:46:39.476Z,59.30
2022-11-16T08:47:39.462Z,73.70
2022-11-16T08:48:39.464Z,61.50
2022-11-16T08:49:39.441Z,57.50
2022-11-16T08:51:10.048Z,65.10
2022-11-16T08:51:39.419Z,56.60
2022-11-16T08:52:39.407Z,57.80
2022-11-16T08:53:39.760Z,52.50
2022-11-16T08:54:39.383Z,70.10
2022-11-16T08:55:39.388Z,64.30
2022-11-16T08:56:39.475Z,51.50
2022-11-16T08:57:39.352Z,72.10
2022-11-16T08:58:39.338Z,56.40
2022-11-16T08:59:39.333Z,57.20
2022-11-16T09:00:39.317Z,67.90
2022-11-16T09:01:39.350Z,81.50
2022-11-16T09:02:39.294Z,62.10
2022-11-16T09:03:39.285Z,85.20
2022-11-16T09:04:39.273Z,74.80
2022-11-16T09:05:39.277Z,68.80
2022-11-16T09:06:39.260Z,71.00
2022-11-16T09:07:39.282Z,57.50
2022-11-16T09:08:39.240Z,66.30
2022-11-16T09:09:39.217Z,63.00
2022-11-16T09:10:39.204Z,65.20
2022-11-16T09:11:39.200Z,57.70
2022-11-16T09:12:39.233Z,72.30
2022-11-16T09:13:39.174Z,98.70
2022-11-16T09:14:39.160Z,74.10
2022-11-16T09:15:39.151Z,59.80
2022-11-16T09:16:39.139Z,65.40
2022-11-16T09:17:39.128Z,70.10
2022-11-16T09:18:39.117Z,64.90
2022-11-16T09:19:39.111Z,63.80
2022-11-16T09:20:39.094Z,57.20
2022-11-16T09:21:39.086Z,71.60
2022-11-16T09:22:39.071Z,50.10
2022-11-16T09:23:39.061Z,68.20
2022-11-16T09:24:39.048Z,63.60
2022-11-16T09:25:39.038Z,86.20
2022-11-16T09:26:39.027Z,79.10
2022-11-16T09:27:39.018Z,77.90
2022-11-16T09:28:39.123Z,65.20
2022-11-16T09:29:38.995Z,66.10
2022-11-16T09:30:38.989Z,62.10
2022-11-16T09:31:38.971Z,69.00
2022-11-16T09:32:38.961Z,77.90
2022-11-16T09:33:38.950Z,71.60
2022-11-16T09:34:38.937Z,76.20
2022-11-16T09:35:38.926Z,51.10
2022-11-16T09:36:38.914Z,56.20
2022-11-16T09:37:38.906Z,62.90
2022-11-16T09:39:03.201Z,63.10
2022-11-16T09:39:39.906Z,62.70
2022-11-16T09:40:38.870Z,63.10
2022-11-16T09:41:38.861Z,55.40
2022-11-16T09:42:38.886Z,67.00
2022-11-16T09:43:45.304Z,55.20
2022-11-16T09:44:39.970Z,75.10
2022-11-16T09:45:38.816Z,58.90
2022-11-16T09:46:38.802Z,56.20
2022-11-16T09:47:38.794Z,54.10
2022-11-16T09:48:38.781Z,63.90
2022-11-16T09:49:38.772Z,62.20
2022-11-16T09:50:38.760Z,67.30
2022-11-16T09:51:38.749Z,66.10
2022-11-16T09:52:38.736Z,68.00
2022-11-16T09:53:39.016Z,61.50
2022-11-16T09:54:38.718Z,59.60
2022-11-16T09:55:38.714Z,66.90
2022-11-16T09:56:38.696Z,69.90
2022-11-16T09:57:38.681Z,71.90
2022-11-16T09:58:39.085Z,67.70
2022-11-16T09:59:38.660Z,81.20
2022-11-16T10:00:38.729Z,66.00
2022-11-16T10:01:38.637Z,66.10
2022-11-16T10:02:38.628Z,81.10
2022-11-16T10:03:38.612Z,66.50
2022-11-16T10:04:38.603Z,95.00
2022-11-16T10:05:38.593Z,78.90
2022-11-16T10:06:38.582Z,63.60
2022-11-16T10:07:38.675Z,65.00
2022-11-16T10:08:38.560Z,59.10
2022-11-16T10:09:38.545Z,55.20
2022-11-16T10:10:38.545Z,80.00
2022-11-16T10:11:38.525Z,55.40
2022-11-16T10:12:38.515Z,61.70
2022-11-16T10:13:38.500Z,61.60
2022-11-16T10:14:38.493Z,67.40
2022-11-16T10:15:38.480Z,62.30
2022-11-16T10:16:38.587Z,63.60
2022-11-16T10:17:38.457Z,51.50
2022-11-16T10:18:38.456Z,77.20
2022-11-16T10:19:38.436Z,58.60
2022-11-16T10:20:38.424Z,54.40
2022-11-16T10:21:38.422Z,67.90
2022-11-16T10:22:38.404Z,91.60
2022-11-16T10:23:38.390Z,62.60
2022-11-16T10:24:38.384Z,74.30
2022-11-16T10:25:38.367Z,71.30
2022-11-16T10:26:38.358Z,59.90
2022-11-16T10:27:38.344Z,74.00
2022-11-16T10:28:38.339Z,84.30
2022-11-16T10:29:38.321Z,68.60
2022-11-16T10:30:38.314Z,72.70
2022-11-16T10:31:38.318Z,77.00
2022-11-16T10:32:38.420Z,76.40
2022-11-16T10:33:38.294Z,68.90
2022-11-16T10:34:38.269Z,71.70
2022-11-16T10:35:38.255Z,68.60
2022-11-16T10:36:38.250Z,74.80
2022-11-16T10:37:38.232Z,68.20
2022-11-16T10:38:38.221Z,70.20
2022-11-16T10:39:38.209Z,63.40
2022-11-16T10:40:38.209Z,76.40
2022-11-16T10:41:38.207Z,81.70
2022-11-16T10:42:38.177Z,77.50
2022-11-16T10:43:38.164Z,94.00
2022-11-16T10:44:38.159Z,61.50
2022-11-16T10:45:38.144Z,64.90
2022-11-16T10:46:38.132Z,79.20
2022-11-16T10:47:38.122Z,129.20
2022-11-16T10:48:38.227Z,61.70
2022-11-16T10:49:38.099Z,71.20
2022-11-16T10:50:38.088Z,62.80
2022-11-16T10:51:38.078Z,70.40
2022-11-16T10:52:38.069Z,66.50
2022-11-16T10:53:38.353Z,61.00
2022-11-16T10:54:43.902Z,57.80
2022-11-16T10:55:39.055Z,55.00
2022-11-16T10:56:38.022Z,66.30
2022-11-16T10:57:38.148Z,54.60
2022-11-16T10:58:38.000Z,70.80
2022-11-16T10:59:37.986Z,114.80
2022-11-16T11:00:38.064Z,90.90
2022-11-16T11:01:37.962Z,105.60
2022-11-16T11:02:38.937Z,97.60
2022-11-16T11:03:38.043Z,84.00
2022-11-16T11:04:38.058Z,76.10
2022-11-16T11:05:37.922Z,62.50
2022-11-16T11:06:37.907Z,61.80
2022-11-16T11:07:37.966Z,70.10
2022-11-16T11:08:37.891Z,56.10
2022-11-16T11:09:37.873Z,68.60
2022-11-16T11:10:37.869Z,89.10
2022-11-16T11:11:37.853Z,113.40
2022-11-16T11:12:38.111Z,68.90
2022-11-16T11:13:37.852Z,60.00
2022-11-16T11:14:37.918Z,80.10
2022-11-16T11:15:38.076Z,59.60
2022-11-16T11:16:38.105Z,67.40
2022-11-16T11:17:37.873Z,65.70
2022-11-16T11:18:37.964Z,61.90
2022-11-16T11:19:37.898Z,61.80
2022-11-16T11:20:43.171Z,58.80
2022-11-16T11:21:38.796Z,74.20
2022-11-16T11:22:38.121Z,60.70
2022-11-16T11:23:37.797Z,82.70
2022-11-16T11:24:44.301Z,83.60
2022-11-16T11:25:38.722Z,62.80
2022-11-16T11:26:37.707Z,71.20
2022-11-16T11:27:37.678Z,53.10
2022-11-16T11:28:37.671Z,67.90
2022-11-16T11:29:37.650Z,83.70
2022-11-16T11:30:37.640Z,135.60
2022-11-16T11:31:37.629Z,52.50
2022-11-16T11:32:37.618Z,58.80
2022-11-16T11:33:37.860Z,53.70
2022-11-16T11:34:37.594Z,85.70
2022-11-16T11:35:37.584Z,61.90
2022-11-16T11:36:37.691Z,54.40
2022-11-16T11:37:37.564Z,76.60
2022-11-16T11:38:37.557Z,103.70
2022-11-16T11:39:37.649Z,59.20
2022-11-16T11:40:37.529Z,62.60
2022-11-16T11:41:37.525Z,84.70
2022-11-16T11:42:37.505Z,122.70
2022-11-16T11:43:37.696Z,66.90
2022-11-16T11:44:37.481Z,68.70
2022-11-16T11:45:37.470Z,61.10
2022-11-16T11:47:10.989Z,63.90
2022-11-16T11:48:37.440Z,82.40
2022-11-16T11:49:37.427Z,50.10
2022-11-16T11:50:37.415Z,59.10
2022-11-16T11:51:37.406Z,54.20
2022-11-16T11:52:37.513Z,78.90
2022-11-16T11:53:37.713Z,63.60
2022-11-16T11:54:41.667Z,59.40
2022-11-16T11:55:38.390Z,50.90
2022-11-16T11:56:37.354Z,55.90
2022-11-16T11:57:37.337Z,68.70
2022-11-16T11:58:37.328Z,71.30
2022-11-16T11:59:37.318Z,84.50
2022-11-16T12:00:37.306Z,93.00
2022-11-16T12:01:37.292Z,83.00
2022-11-16T12:02:37.314Z,51.40
2022-11-16T12:03:37.474Z,57.70
2022-11-16T12:04:37.258Z,98.40
2022-11-16T12:05:37.246Z,50.30
2022-11-16T12:06:42.605Z,59.50
2022-11-16T12:07:38.345Z,68.50
2022-11-16T12:08:37.338Z,68.30
2022-11-16T12:09:37.204Z,60.50
2022-11-16T12:10:37.244Z,76.90
2022-11-16T12:11:37.180Z,53.60
2022-11-16T12:12:37.221Z,53.50
2022-11-16T12:13:37.507Z,78.20
2022-11-16T12:14:37.249Z,51.40
2022-11-16T12:15:37.185Z,52.60
2022-11-16T12:16:37.125Z,54.10
2022-11-16T12:17:37.216Z,56.10
2022-11-16T12:18:37.105Z,73.20
2022-11-16T12:19:37.091Z,49.70
2022-11-16T12:20:37.085Z,53.30
2022-11-16T12:21:37.072Z,97.30
2022-11-16T12:22:37.059Z,54.40
2022-11-16T12:23:37.384Z,61.20
2022-11-16T12:24:37.152Z,71.90
2022-11-16T12:25:37.024Z,57.40
2022-11-16T12:26:37.017Z,54.10
2022-11-16T12:27:37.002Z,58.20
2022-11-16T12:28:36.994Z,52.90
2022-11-16T12:29:36.989Z,68.10
2022-11-16T12:30:36.973Z,53.30
2022-11-16T12:31:36.958Z,62.80
2022-11-16T12:32:36.949Z,48.30
2022-11-16T12:33:37.227Z,44.60
2022-11-16T12:34:36.951Z,41.70
2022-11-16T12:35:36.914Z,54.90
2022-11-16T12:36:36.903Z,50.50
2022-11-16T12:37:36.893Z,75.10
2022-11-16T12:38:36.884Z,55.90
2022-11-16T12:39:36.869Z,49.10
2022-11-16T12:40:36.883Z,45.70
2022-11-16T12:41:36.845Z,65.10
2022-11-16T12:42:36.838Z,43.90
2022-11-16T12:43:37.020Z,40.70
2022-11-16T12:44:36.815Z,46.30
2022-11-16T12:45:36.801Z,52.40
2022-11-16T12:46:36.809Z,68.70
2022-11-16T12:47:36.785Z,53.90
2022-11-16T12:48:36.784Z,43.60
2022-11-16T12:49:36.759Z,45.20
2022-11-16T12:50:36.749Z,84.80
2022-11-16T12:51:36.738Z,46.80
2022-11-16T12:52:36.727Z,73.10
2022-11-16T12:53:37.125Z,52.40
2022-11-16T12:54:36.703Z,45.30
2022-11-16T12:55:36.692Z,50.80
2022-11-16T12:56:36.801Z,48.60